Time;durP1;ratioP1;P1;durP2;ratioP2;P2;SDS_P1;SDS_P2;PMS_P1;PMS_P2;Temp;Humidity;BMP_temperature;BMP_pressure;BME280_temperature;BME280_humidity;BME280_pressure;Samples;Min_cycle;Max_cycle;Signal;HPM_P1;HPM_P2
2023/09/17 00:02:53;;;;;;;;;18.80;16.80;;;;;19.77;100.00;98959.84;6234874;27;96859;-65
2023/09/17 00:05:56;;;;;;;;;16.75;15.75;;;;;19.83;100.00;98980.63;6257541;27;96985;-65
2023/09/17 00:08:59;;;;;;;;;20.00;17.50;;;;;19.81;100.00;98978.16;6247479;27;96685;-65
2023/09/17 00:12:03;;;;;;;;;16.00;15.60;;;;;19.79;100.00;98976.81;6257526;27;97398;-65
2023/09/17 00:15:09;;;;;;;;;17.00;16.50;;;;;19.75;100.00;98979.25;6260192;27;96122;-65
2023/09/17 00:18:12;;;;;;;;;20.00;17.00;;;;;19.72;100.00;98974.38;6243671;27;98432;-65
2023/09/17 00:21:15;;;;;;;;;19.00;18.00;;;;;19.70;100.00;98968.34;6235627;27;97200;-65
2023/09/17 00:24:18;;;;;;;;;20.00;19.00;;;;;19.70;100.00;98971.06;6268741;27;96877;-65
2023/09/17 00:27:21;;;;;;;;;20.00;18.00;;;;;19.71;100.00;98977.38;6245785;28;96377;-65
2023/09/17 00:30:27;;;;;;;;;17.20;15.80;;;;;19.69;100.00;98988.59;6245118;28;97624;-65
2023/09/17 00:33:30;;;;;;;;;20.25;18.00;;;;;19.67;100.00;98976.28;6227609;28;96627;-65
2023/09/17 00:36:34;;;;;;;;;17.80;16.00;;;;;19.63;100.00;98972.47;6244326;28;96371;-65
2023/09/17 00:39:37;;;;;;;;;17.00;15.00;;;;;19.57;100.00;98974.41;6247534;27;96624;-65
2023/09/17 00:42:41;;;;;;;;;19.00;16.00;;;;;19.57;100.00;98968.94;6226486;28;99331;-65
2023/09/17 00:45:46;;;;;;;;;16.25;14.25;;;;;19.52;100.00;98963.47;6206777;27;98611;-65
2023/09/17 00:48:49;;;;;;;;;19.00;17.00;;;;;19.50;100.00;98962.94;6222873;28;96861;-65
2023/09/17 00:51:52;;;;;;;;;21.20;18.60;;;;;19.48;100.00;98965.16;6247201;27;96712;-65
2023/09/17 00:54:57;;;;;;;;;19.50;17.75;;;;;19.41;100.00;98965.38;6241444;27;96491;-65
2023/09/17 00:58:01;;;;;;;;;19.00;17.00;;;;;19.39;100.00;98966.78;6243833;27;96550;-65
2023/09/17 01:01:07;;;;;;;;;15.60;15.60;;;;;19.37;100.00;98960.75;6246823;28;96334;-65
2023/09/17 01:04:12;;;;;;;;;17.00;16.00;;;;;19.32;100.00;98964.31;6248770;27;96373;-65
2023/09/17 01:07:17;;;;;;;;;17.50;16.75;;;;;19.32;100.00;98967.06;6234915;28;96916;-65
2023/09/17 01:10:20;;;;;;;;;19.00;16.60;;;;;19.30;100.00;98962.97;6246992;28;96955;-65
2023/09/17 01:13:25;;;;;;;;;16.80;15.00;;;;;19.32;100.00;98968.97;6226294;27;96607;-65
2023/09/17 01:16:29;;;;;;;;;19.00;17.00;;;;;19.29;100.00;98958.59;6240939;27;96409;-65
2023/09/17 01:19:33;;;;;;;;;18.75;16.75;;;;;19.27;100.00;98964.31;6230387;28;96440;-66
2023/09/17 01:22:44;;;;;;;;;18.40;16.40;;;;;19.12;100.00;98949.88;6249219;27;96272;-65
2023/09/17 01:25:56;;;;;;;;;18.50;17.00;;;;;19.27;100.00;98968.97;6247123;28;96964;-65
2023/09/17 01:29:04;;;;;;;;;16.00;14.50;;;;;19.14;100.00;98947.69;6246022;28;96403;-65
2023/09/17 01:32:10;;;;;;;;;16.00;15.25;;;;;19.21;100.00;98951.75;6245594;28;96296;-65
2023/09/17 01:35:15;;;;;;;;;15.00;13.00;;;;;19.22;100.00;98966.25;6245477;28;96379;-65
2023/09/17 01:38:20;;;;;;;;;18.00;17.00;;;;;19.26;100.00;98961.88;6230009;28;97072;-65
2023/09/17 01:41:27;;;;;;;;;20.25;16.25;;;;;19.22;100.00;98961.59;6246121;28;96374;-65
2023/09/17 01:44:33;;;;;;;;;16.60;15.00;;;;;19.21;100.00;98962.69;6223201;27;96645;-65
2023/09/17 01:47:37;;;;;;;;;17.00;16.00;;;;;19.16;100.00;98970.06;6245511;27;98701;-65
2023/09/17 01:50:42;;;;;;;;;18.50;18.00;;;;;19.00;100.00;98953.72;6206079;28;98595;-65
2023/09/17 01:53:45;;;;;;;;;20.80;17.00;;;;;18.98;100.00;98958.63;6241036;27;96260;-65
2023/09/17 01:56:49;;;;;;;;;16.00;14.00;;;;;18.95;100.00;98966.56;6226060;27;98370;-65
2023/09/17 01:59:54;;;;;;;;;14.60;14.00;;;;;18.94;100.00;98957.53;6237741;27;96448;-65
2023/09/17 02:02:58;;;;;;;;;17.00;16.00;;;;;18.95;100.00;98952.91;6229086;28;96401;-65
2023/09/17 02:06:04;;;;;;;;;15.25;14.25;;;;;18.96;100.00;98955.34;6200753;28;96591;-65
2023/09/17 02:09:08;;;;;;;;;12.80;12.00;;;;;18.95;100.00;98956.47;6245212;28;96668;-65
2023/09/17 02:12:11;;;;;;;;;14.60;13.60;;;;;18.92;100.00;98947.97;6230466;28;96747;-65
2023/09/17 02:15:16;;;;;;;;;14.00;13.00;;;;;18.92;100.00;98946.06;6246970;27;96989;-65
2023/09/17 02:18:20;;;;;;;;;14.00;14.00;;;;;18.92;100.00;98957.00;6212470;28;98571;-65
2023/09/17 02:21:24;;;;;;;;;14.40;12.80;;;;;18.91;100.00;98955.34;6237961;28;96289;-65
2023/09/17 02:24:28;;;;;;;;;18.40;17.60;;;;;18.91;100.00;98951.81;6231638;28;96334;-65
2023/09/17 02:27:31;;;;;;;;;17.00;13.00;;;;;18.89;100.00;98943.88;6211431;28;97361;-65
2023/09/17 02:30:35;;;;;;;;;16.00;15.00;;;;;18.87;100.00;98951.53;6229171;28;96849;-65
2023/09/17 02:33:39;;;;;;;;;15.50;15.00;;;;;18.89;100.00;98954.81;6246390;27;96379;-65
2023/09/17 02:36:42;;;;;;;;;17.60;15.40;;;;;18.94;100.00;98945.78;6229328;28;96573;-65
2023/09/17 02:39:45;;;;;;;;;15.40;14.40;;;;;18.95;100.00;98934.59;6246255;28;97199;-65
2023/09/17 02:42:48;;;;;;;;;15.00;14.00;;;;;18.96;100.00;98938.94;6247508;28;96654;-65
2023/09/17 02:45:54;;;;;;;;;18.00;16.00;;;;;18.95;100.00;98950.19;6231462;28;96771;-65
2023/09/17 02:48:57;;;;;;;;;19.00;17.00;;;;;18.93;100.00;98950.44;6213014;28;96453;-65
2023/09/17 02:52:00;;;;;;;;;17.00;15.00;;;;;18.94;100.00;98954.81;6235570;27;96850;-65
2023/09/17 02:55:04;;;;;;;;;13.40;13.40;;;;;18.91;100.00;98957.28;6237104;28;97499;-65
2023/09/17 02:58:09;;;;;;;;;16.00;15.50;;;;;18.88;100.00;98950.44;6205232;28;96126;-65
2023/09/17 03:01:18;;;;;;;;;13.20;13.00;;;;;18.89;100.00;98949.34;6228550;28;96956;-65
2023/09/17 03:04:26;;;;;;;;;14.33;14.33;;;;;18.87;100.00;98956.16;6211935;27;96600;-65
2023/09/17 03:07:30;;;;;;;;;14.50;14.00;;;;;18.88;100.00;98952.34;6221573;28;96477;-65
2023/09/17 03:10:41;;;;;;;;;14.00;14.00;;;;;18.85;100.00;98952.91;6203091;28;96884;-65
2023/09/17 03:13:46;;;;;;;;;13.00;12.60;;;;;18.78;100.00;98946.88;6203221;28;98450;-65
2023/09/17 03:16:52;;;;;;;;;18.40;15.80;;;;;18.74;100.00;98959.47;6204544;28;96325;-65
2023/09/17 03:19:56;;;;;;;;;16.00;15.00;;;;;18.72;100.00;98948.78;6212059;27;98556;-65
2023/09/17 03:23:00;;;;;;;;;14.20;13.60;;;;;18.72;100.00;98951.53;6247079;28;96385;-65
2023/09/17 03:26:04;;;;;;;;;17.00;15.50;;;;;18.71;100.00;98949.91;6228900;28;96699;-65
2023/09/17 03:29:07;;;;;;;;;17.40;15.40;;;;;18.74;100.00;98943.91;6247115;27;96370;-65
2023/09/17 03:32:13;;;;;;;;;15.00;14.40;;;;;18.75;100.00;98953.72;6215958;28;96395;-65
2023/09/17 03:35:16;;;;;;;;;15.00;14.00;;;;;18.78;100.00;98947.72;6226587;27;97012;-65
2023/09/17 03:38:20;;;;;;;;;16.00;14.80;;;;;18.80;100.00;98939.25;6207434;28;98549;-65
2023/09/17 03:41:23;;;;;;;;;15.40;14.40;;;;;18.82;100.00;98942.50;6249054;27;96690;-65
2023/09/17 03:44:27;;;;;;;;;16.00;14.50;;;;;18.82;100.00;98939.78;6228223;27;96294;-65
2023/09/17 03:47:32;;;;;;;;;15.00;12.40;;;;;18.74;100.00;98927.50;6242765;27;96468;-65
2023/09/17 03:50:38;;;;;;;;;17.00;14.00;;;;;18.80;100.00;98936.53;6216376;27;96297;-65
2023/09/17 03:53:43;;;;;;;;;17.00;16.00;;;;;18.87;100.00;98935.13;6200666;28;97106;-65
2023/09/17 03:56:47;;;;;;;;;18.40;16.60;;;;;18.87;100.00;98943.34;6202012;28;97608;-65
2023/09/17 03:59:51;;;;;;;;;17.80;16.00;;;;;18.85;100.00;98942.81;6200928;28;96301;-66
2023/09/17 04:02:55;;;;;;;;;15.60;13.60;;;;;18.90;100.00;98939.25;6228298;27;96753;-66
2023/09/17 04:05:59;;;;;;;;;15.40;14.00;;;;;18.87;100.00;98945.25;6246196;27;97118;-65
2023/09/17 04:09:02;;;;;;;;;14.00;12.00;;;;;18.86;100.00;98946.34;6220303;28;96745;-65
2023/09/17 04:12:06;;;;;;;;;16.25;14.25;;;;;18.81;100.00;98939.00;6252148;27;96536;-65
2023/09/17 04:15:13;;;;;;;;;15.00;14.00;;;;;18.78;100.00;98950.44;6242975;27;97001;-65
2023/09/17 04:18:18;;;;;;;;;16.60;15.00;;;;;18.73;100.00;98936.78;6225970;27;96389;-65
2023/09/17 04:21:21;;;;;;;;;16.20;15.00;;;;;18.74;100.00;98938.44;6245018;27;97828;-65
2023/09/17 04:24:25;;;;;;;;;15.00;13.00;;;;;18.75;100.00;98940.06;6232189;27;98551;-65
2023/09/17 04:27:28;;;;;;;;;15.50;13.50;;;;;18.78;100.00;98936.78;6240839;27;96178;-65
2023/09/17 04:30:32;;;;;;;;;13.75;13.75;;;;;18.80;100.00;98941.97;6232834;27;96861;-65
2023/09/17 04:33:36;;;;;;;;;14.00;13.00;;;;;18.86;100.00;98951.81;6230399;27;99027;-65
2023/09/17 04:36:40;;;;;;;;;15.00;15.00;;;;;18.93;100.00;98961.38;6243168;27;96966;-65
2023/09/17 04:39:43;;;;;;;;;14.00;13.20;;;;;19.02;100.00;98961.63;6231044;27;96441;-65
2023/09/17 04:42:47;;;;;;;;;15.00;14.20;;;;;19.08;100.00;98965.19;6235312;27;97057;-65
2023/09/17 04:45:55;;;;;;;;;17.00;15.00;;;;;19.15;100.00;98961.09;6250652;27;96270;-65
2023/09/17 04:49:04;;;;;;;;;18.00;16.00;;;;;19.26;100.00;98970.06;6266740;27;96379;-65
2023/09/17 04:52:07;;;;;;;;;17.20;15.00;;;;;19.41;100.00;98968.13;6230004;27;97994;-65
2023/09/17 04:55:10;;;;;;;;;18.00;14.75;;;;;19.46;100.00;98968.16;6247150;27;98696;-65
2023/09/17 04:58:16;;;;;;;;;17.60;16.00;;;;;19.48;100.00;98973.34;6246548;27;96699;-65
2023/09/17 05:01:22;;;;;;;;;19.20;16.40;;;;;19.48;100.00;98970.59;6244564;27;96452;-65
2023/09/17 05:04:26;;;;;;;;;19.00;16.00;;;;;19.55;100.00;98967.59;6221256;28;96555;-65
2023/09/17 05:07:30;;;;;;;;;20.00;18.40;;;;;19.65;100.00;98970.28;6237641;27;96678;-65
2023/09/17 05:10:33;;;;;;;;;20.60;19.00;;;;;19.76;100.00;98980.09;6206995;28;96704;-65
2023/09/17 05:13:37;;;;;;;;;20.40;18.20;;;;;19.87;100.00;98988.00;6215783;28;96345;-65
2023/09/17 05:16:41;;;;;;;;;22.00;21.00;;;;;20.01;100.00;98987.38;6240738;28;96855;-65
2023/09/17 05:19:46;;;;;;;;;21.60;18.00;;;;;20.17;100.00;98991.69;6228171;27;96731;-65
2023/09/17 05:22:50;;;;;;;;;22.80;19.80;;;;;20.30;100.00;98993.81;6248621;27;96337;-65
2023/09/17 05:25:55;;;;;;;;;21.00;19.40;;;;;20.47;100.00;98980.59;6223862;27;96403;-65
2023/09/17 05:28:59;;;;;;;;;20.40;18.00;;;;;20.60;100.00;98982.69;6202019;28;96278;-65
2023/09/17 05:32:03;;;;;;;;;22.75;19.75;;;;;20.75;100.00;98984.50;6206042;28;98388;-65
2023/09/17 05:35:08;;;;;;;;;22.00;20.60;;;;;20.77;100.00;98985.84;6241511;27;96288;-65
2023/09/17 05:38:12;;;;;;;;;21.50;18.50;;;;;20.86;100.00;98996.22;6253498;27;96401;-65
2023/09/17 05:41:16;;;;;;;;;20.40;18.60;;;;;20.89;100.00;98998.38;6253465;27;96982;-65
2023/09/17 05:44:19;;;;;;;;;20.00;18.50;;;;;20.92;100.00;99006.00;6251617;27;96645;-65
2023/09/17 05:47:23;;;;;;;;;22.00;20.00;;;;;20.95;100.00;99000.78;6231218;28;98481;-65
2023/09/17 05:50:27;;;;;;;;;22.60;20.00;;;;;21.05;100.00;99006.19;6231328;27;96303;-65
2023/09/17 05:53:31;;;;;;;;;24.00;21.60;;;;;21.10;100.00;99002.59;6254515;27;96890;-65
2023/09/17 05:56:34;;;;;;;;;23.00;21.00;;;;;21.17;100.00;99006.66;6222680;28;96149;-65
2023/09/17 05:59:37;;;;;;;;;26.50;21.25;;;;;21.26;100.00;99003.31;6248298;27;96702;-65
2023/09/17 06:02:42;;;;;;;;;26.00;23.25;;;;;21.32;100.00;98999.38;6249085;27;96851;-65
2023/09/17 06:05:53;;;;;;;;;26.40;23.20;;;;;21.37;100.00;99011.13;6238347;27;96395;-65
2023/09/17 06:08:56;;;;;;;;;23.00;21.00;;;;;21.48;100.00;99004.44;6233829;27;98375;-65
2023/09/17 06:11:59;;;;;;;;;22.75;20.25;;;;;21.65;100.00;99003.97;6220368;28;96334;-65
2023/09/17 06:15:04;;;;;;;;;22.00;19.80;;;;;21.77;100.00;99000.84;6241939;27;96346;-65
2023/09/17 06:18:08;;;;;;;;;23.25;21.75;;;;;22.03;100.00;99003.03;6225367;28;96706;-66
2023/09/17 06:21:12;;;;;;;;;27.00;24.00;;;;;22.23;100.00;99006.63;6238564;27;96664;-65
2023/09/17 06:24:15;;;;;;;;;25.40;23.00;;;;;22.38;100.00;99012.72;6203478;28;97103;-65
2023/09/17 06:27:18;;;;;;;;;26.00;22.60;;;;;22.48;100.00;99021.94;6236731;27;97273;-65
2023/09/17 06:30:24;;;;;;;;;29.00;26.80;;;;;22.62;100.00;99026.41;6228089;27;96542;-65
2023/09/17 06:33:27;;;;;;;;;29.25;26.00;;;;;22.77;100.00;99023.44;6211755;27;97130;-66
2023/09/17 06:36:32;;;;;;;;;27.00;24.60;;;;;22.83;100.00;99025.00;6233232;28;96400;-66
2023/09/17 06:39:36;;;;;;;;;24.00;21.00;;;;;22.93;100.00;99026.78;6209627;28;96322;-66
2023/09/17 06:42:40;;;;;;;;;29.25;25.25;;;;;23.01;100.00;99028.88;6211772;27;96974;-66
2023/09/17 06:45:44;;;;;;;;;24.00;22.75;;;;;23.06;100.00;99036.22;6218921;27;96680;-65
2023/09/17 06:48:47;;;;;;;;;27.80;23.80;;;;;22.95;100.00;99027.31;6205484;27;99100;-65
2023/09/17 06:51:54;;;;;;;;;31.80;27.00;;;;;22.99;100.00;99030.28;6226266;27;96505;-65
2023/09/17 06:54:57;;;;;;;;;26.00;23.00;;;;;23.06;100.00;99028.78;6257115;27;96382;-65
2023/09/17 06:58:00;;;;;;;;;23.00;21.00;;;;;23.29;100.00;99032.53;6237732;27;96809;-66
2023/09/17 07:01:04;;;;;;;;;23.40;21.40;;;;;23.32;100.00;99042.91;6243446;27;96473;-65
2023/09/17 07:04:07;;;;;;;;;23.60;21.40;;;;;23.69;100.00;99042.84;6229402;27;98723;-66
2023/09/17 07:07:17;;;;;;;;;25.40;23.40;;;;;24.10;100.00;99044.78;6216178;27;97085;-65
2023/09/17 07:10:21;;;;;;;;;26.00;23.00;;;;;24.50;100.00;99057.75;6204439;27;97127;-66
2023/09/17 07:13:24;;;;;;;;;24.00;22.00;;;;;25.11;100.00;99058.34;6252851;27;96371;-66
2023/09/17 07:16:28;;;;;;;;;22.40;20.40;;;;;25.58;100.00;99062.41;6224902;27;98299;-66
2023/09/17 07:19:33;;;;;;;;;19.80;18.80;;;;;25.94;100.00;99057.59;6221775;28;96950;-66
2023/09/17 07:22:38;;;;;;;;;20.60;18.40;;;;;26.36;100.00;99060.84;6213249;28;96552;-66
2023/09/17 07:25:41;;;;;;;;;23.20;22.20;;;;;26.50;100.00;99058.75;6225161;28;96508;-66
2023/09/17 07:28:44;;;;;;;;;20.20;19.00;;;;;26.53;100.00;99067.25;6235984;28;96555;-66
2023/09/17 07:31:48;;;;;;;;;23.60;22.40;;;;;26.68;100.00;99072.28;6228557;27;96652;-66
2023/09/17 07:34:51;;;;;;;;;21.50;20.25;;;;;26.74;100.00;99073.75;6238984;27;96342;-66
2023/09/17 07:37:55;;;;;;;;;21.00;18.00;;;;;26.95;100.00;99056.56;6227343;27;96868;-66
2023/09/17 07:40:59;;;;;;;;;18.80;16.00;;;;;27.52;100.00;99068.28;6207434;27;98670;-67
2023/09/17 07:44:02;;;;;;;;;17.00;15.40;;;;;28.32;100.00;99075.69;6232931;27;96471;-67
2023/09/17 07:47:08;;;;;;;;;16.00;13.67;;;;;29.07;100.00;99079.47;6214038;27;97022;-67
2023/09/17 07:50:12;;;;;;;;;14.00;13.00;;;;;29.78;100.00;99090.41;6234767;27;96316;-68
2023/09/17 07:53:17;;;;;;;;;10.80;10.00;;;;;30.30;100.00;99089.84;6235682;27;96352;-67
2023/09/17 07:56:20;;;;;;;;;9.25;9.00;;;;;30.89;100.00;99087.38;6237167;27;96665;-68
2023/09/17 07:59:27;;;;;;;;;10.00;9.00;;;;;31.58;100.00;99092.66;6215695;27;98391;-68
2023/09/17 08:02:30;;;;;;;;;10.00;10.00;;;;;32.05;100.00;99094.72;6239078;27;97594;-68
2023/09/17 08:05:33;;;;;;;;;11.00;10.40;;;;;32.49;100.00;99095.47;6236738;27;96172;-68
2023/09/17 08:08:38;;;;;;;;;9.00;9.00;;;;;33.02;100.00;99093.94;6233950;27;97078;-68
2023/09/17 08:11:42;;;;;;;;;7.00;6.00;;;;;33.53;100.00;99091.06;6209878;28;98536;-68
2023/09/17 08:14:46;;;;;;;;;6.00;6.00;;;;;33.87;100.00;99098.50;6237837;28;96923;-68
2023/09/17 08:17:51;;;;;;;;;8.00;7.60;;;;;34.17;100.00;99093.06;6220340;27;96793;-68
2023/09/17 08:20:54;;;;;;;;;8.00;7.00;;;;;34.47;100.00;99098.78;6230281;27;96754;-68
2023/09/17 08:23:59;;;;;;;;;8.00;8.00;;;;;34.80;100.00;99096.13;6239723;27;96642;-68
2023/09/17 08:27:22;;;;;;;;;5.00;5.00;;;;;35.31;100.00;99084.44;6227713;27;96826;-68
2023/09/17 08:30:45;;;;;;;;;5.00;5.00;;;;;36.01;100.00;99078.84;6238846;27;96565;-68
2023/09/17 08:34:08;;;;;;;;;8.00;8.00;;;;;36.44;100.00;99085.66;6221759;27;96577;-68
2023/09/17 08:37:13;;;;;;;;;6.50;6.50;;;;;36.65;100.00;99085.88;6239193;27;96494;-68
2023/09/17 08:40:24;;;;;;;;;6.00;6.00;;;;;36.73;99.96;99083.91;6215760;27;96783;-68
2023/09/17 08:43:28;;;;;;;;;5.00;5.00;;;;;37.00;95.98;99076.81;6238843;27;96276;-68
2023/09/17 08:46:32;;;;;;;;;5.00;5.00;;;;;37.39;94.38;99085.47;6207151;27;96912;-68
2023/09/17 08:49:36;;;;;;;;;5.00;5.00;;;;;37.60;95.90;99081.97;6196783;27;96815;-69
2023/09/17 08:52:42;;;;;;;;;5.00;5.00;;;;;37.89;92.32;99085.63;6205353;27;98700;-69
2023/09/17 08:55:48;;;;;;;;;5.00;4.60;;;;;37.95;88.51;99075.59;6217165;27;96272;-68
2023/09/17 08:58:53;;;;;;;;;3.00;3.00;;;;;37.99;81.84;99068.81;6243793;27;96402;-69
2023/09/17 09:02:00;;;;;;;;;4.00;4.00;;;;;38.17;81.27;99084.91;6230746;28;98330;-68
2023/09/17 09:05:05;;;;;;;;;6.00;6.00;;;;;38.42;85.56;99071.63;6241809;27;96295;-68
2023/09/17 09:08:10;;;;;;;;;4.00;4.00;;;;;38.58;80.79;99083.31;6220356;28;96284;-68
2023/09/17 09:11:15;;;;;;;;;3.75;3.25;;;;;38.56;78.59;99072.44;6224993;27;96353;-68
2023/09/17 09:14:18;;;;;;;;;4.00;4.00;;;;;38.66;80.49;99075.69;6231797;27;97086;-69
2023/09/17 09:17:22;;;;;;;;;4.00;3.80;;;;;38.56;77.23;99078.06;6239357;27;96908;-70
2023/09/17 09:20:26;;;;;;;;;5.00;4.00;;;;;37.95;77.14;99076.41;6204866;27;97730;-70
2023/09/17 09:23:29;;;;;;;;;5.80;5.80;;;;;38.14;72.62;99078.06;6224679;28;97010;-70
2023/09/17 09:26:36;;;;;;;;;5.00;4.40;;;;;38.15;71.22;99076.88;6224477;28;96737;-70
2023/09/17 09:29:42;;;;;;;;;5.00;4.60;;;;;38.61;73.56;99070.44;6217946;28;98532;-70
2023/09/17 09:32:46;;;;;;;;;4.00;4.00;;;;;38.89;72.92;99065.59;6232626;28;96346;-70
2023/09/17 09:35:50;;;;;;;;;4.00;4.00;;;;;39.28;74.41;99073.91;6206687;28;96676;-70
2023/09/17 09:38:53;;;;;;;;;4.00;4.00;;;;;39.71;68.71;99065.25;6214688;28;96778;-70
2023/09/17 09:41:58;;;;;;;;;5.40;4.40;;;;;39.71;68.76;99063.22;6233378;27;96951;-69
2023/09/17 09:45:03;;;;;;;;;3.80;3.80;;;;;39.94;68.03;99068.34;6210886;28;97018;-70
2023/09/17 09:48:14;;;;;;;;;4.00;3.40;;;;;39.54;68.18;99038.72;6227604;27;96539;-70
2023/09/17 09:51:17;;;;;;;;;3.00;3.00;;;;;39.42;68.47;99053.31;6205120;28;98695;-69
2023/09/17 09:54:20;;;;;;;;;5.60;5.00;;;;;38.34;69.51;99056.75;6214777;27;96979;-70
2023/09/17 09:57:25;;;;;;;;;3.50;3.50;;;;;38.70;68.18;99054.72;6219284;27;97095;-69
2023/09/17 10:00:30;;;;;;;;;4.00;4.00;;;;;38.24;69.21;99049.09;6230128;27;96440;-69
2023/09/17 10:03:33;;;;;;;;;4.00;4.00;;;;;37.38;72.45;99052.13;6212716;27;96698;-69
2023/09/17 10:06:37;;;;;;;;;5.00;4.00;;;;;36.60;73.86;99055.31;6248812;27;96480;-70
2023/09/17 10:09:41;;;;;;;;;6.00;6.00;;;;;35.79;78.98;99024.53;6244577;27;96511;-69
2023/09/17 10:12:47;;;;;;;;;4.60;4.00;;;;;35.42;81.50;99046.94;6230190;27;100191;-69
2023/09/17 10:15:51;;;;;;;;;3.00;3.00;;;;;34.81;82.22;99040.91;6217965;27;96448;-69
2023/09/17 10:18:55;;;;;;;;;4.00;4.00;;;;;34.31;86.55;99049.34;6251333;27;96395;-69
2023/09/17 10:21:59;;;;;;;;;8.00;8.00;;;;;34.20;88.49;99044.78;6212460;27;97032;-68
2023/09/17 10:25:05;;;;;;;;;4.75;4.75;;;;;33.90;93.77;99047.44;6238961;27;96442;-69
2023/09/17 10:28:11;;;;;;;;;6.00;6.00;;;;;33.45;94.48;99050.94;6231316;27;96544;-69
2023/09/17 10:31:15;;;;;;;;;5.00;5.00;;;;;32.93;98.14;99043.88;6236631;27;97303;-69
2023/09/17 10:34:20;;;;;;;;;5.25;5.25;;;;;32.52;100.00;99048.09;6243533;27;96607;-69
2023/09/17 10:37:25;;;;;;;;;4.00;4.00;;;;;32.54;100.00;99042.16;6248984;27;97225;-69
2023/09/17 10:40:29;;;;;;;;;4.00;4.00;;;;;33.56;99.77;99053.97;6243692;27;96862;-69
2023/09/17 10:43:35;;;;;;;;;5.00;5.00;;;;;33.45;95.49;99043.38;6229979;27;97236;-69
2023/09/17 10:46:42;;;;;;;;;5.40;5.40;;;;;33.12;100.00;99037.50;6231591;27;96397;-69
2023/09/17 10:49:45;;;;;;;;;5.60;5.00;;;;;32.87;99.86;99036.16;6252015;27;96616;-69
2023/09/17 10:52:49;;;;;;;;;4.60;4.60;;;;;33.82;94.79;99042.88;6231161;27;98551;-69
2023/09/17 10:56:09;;;;;;;;;4.00;4.00;;;;;33.78;92.39;99042.81;6248529;27;96660;-69
2023/09/17 10:59:17;;;;;;;;;5.00;5.00;;;;;34.16;90.63;99035.50;6244893;27;96529;-68
2023/09/17 11:02:24;;;;;;;;;6.00;5.50;;;;;34.39;90.53;99035.47;6207756;28;97624;-69
2023/09/17 11:05:31;;;;;;;;;6.60;6.00;;;;;33.99;91.98;99044.38;6216466;28;97018;-69
2023/09/17 11:08:35;;;;;;;;;4.00;4.00;;;;;33.67;94.35;99041.84;6213864;28;96877;-69
2023/09/17 11:11:40;;;;;;;;;5.00;5.00;;;;;33.10;96.80;99037.03;6204644;28;98648;-69
2023/09/17 11:14:46;;;;;;;;;6.00;5.50;;;;;32.73;100.00;99035.84;6204286;28;96494;-70
2023/09/17 11:17:51;;;;;;;;;4.60;4.60;;;;;32.58;100.00;99029.91;6227982;28;96527;-69
2023/09/17 11:21:00;;;;;;;;;6.40;6.40;;;;;32.47;100.00;99031.63;6197512;28;96682;-68
2023/09/17 11:24:06;;;;;;;;;5.80;5.00;;;;;32.37;100.00;99032.19;6206931;28;96414;-69
2023/09/17 11:27:13;;;;;;;;;7.50;7.00;;;;;32.77;100.00;99026.38;6233374;27;96884;-69
2023/09/17 11:30:18;;;;;;;;;6.00;5.50;;;;;33.31;100.00;99026.34;6216910;28;97268;-69
2023/09/17 11:33:23;;;;;;;;;4.00;4.00;;;;;34.32;100.00;99028.56;6189283;28;96786;-70
2023/09/17 11:36:26;;;;;;;;;6.00;4.50;;;;;35.06;98.25;99031.66;6223299;28;98446;-70
2023/09/17 11:39:30;;;;;;;;;4.00;4.00;;;;;35.60;88.76;99033.13;6212857;28;96897;-70
2023/09/17 11:42:33;;;;;;;;;3.00;3.00;;;;;36.09;86.69;99034.81;6224909;28;96851;-70
2023/09/17 11:45:39;;;;;;;;;5.00;5.00;;;;;35.82;84.39;99029.38;6224697;28;96355;-70
2023/09/17 11:48:43;;;;;;;;;4.00;3.00;;;;;35.55;84.61;99005.41;6186985;28;99355;-70
2023/09/17 11:51:47;;;;;;;;;3.80;3.80;;;;;35.67;84.69;99022.00;6201339;28;96521;-70
2023/09/17 11:54:54;;;;;;;;;5.00;4.00;;;;;35.57;83.45;99028.28;6189941;28;99141;-69
2023/09/17 11:58:15;;;;;;;;;4.50;4.50;;;;;35.28;83.88;99017.94;6189049;28;96390;-70
2023/09/17 12:01:20;;;;;;;;;7.00;6.50;;;;;35.00;83.09;99016.38;6190072;28;97079;-69
2023/09/17 12:04:26;;;;;;;;;7.60;7.00;;;;;34.86;86.87;99012.56;6219816;28;96641;-69
2023/09/17 12:07:29;;;;;;;;;5.00;5.00;;;;;34.60;88.63;99000.19;6200457;28;96736;-70
2023/09/17 12:10:52;;;;;;;;;7.00;7.00;;;;;34.31;90.41;99010.16;6194140;28;96889;-69
2023/09/17 12:13:57;;;;;;;;;6.60;6.40;;;;;34.04;94.33;99008.50;6198667;28;96891;-70
2023/09/17 12:17:02;;;;;;;;;6.60;6.60;;;;;33.89;96.84;99009.44;6213656;28;96464;-70
2023/09/17 12:20:20;;;;;;;;;8.60;8.60;;;;;33.76;100.00;99003.25;6215511;28;96219;-70
2023/09/17 12:23:37;;;;;;;;;8.00;7.00;;;;;33.67;100.00;99004.66;6228804;28;96286;-69
2023/09/17 12:26:54;;;;;;;;;7.80;6.20;;;;;33.48;100.00;98997.91;6183230;28;97131;-70
2023/09/17 12:29:57;;;;;;;;;8.00;7.00;;;;;33.33;100.00;98992.44;6200639;28;96380;-69
2023/09/17 12:33:02;;;;;;;;;4.20;4.20;;;;;33.19;100.00;98984.56;6212136;28;96432;-69
2023/09/17 12:36:06;;;;;;;;;5.00;4.80;;;;;33.08;100.00;98989.13;6180296;28;96527;-68
2023/09/17 12:39:09;;;;;;;;;4.60;4.60;;;;;33.07;100.00;98990.28;6189578;28;96347;-69
2023/09/17 12:42:14;;;;;;;;;4.80;4.00;;;;;33.01;100.00;98981.41;6219602;28;96635;-69
2023/09/17 12:45:19;;;;;;;;;7.00;7.00;;;;;33.13;100.00;98990.81;6220035;28;96503;-68
2023/09/17 12:48:26;;;;;;;;;9.00;8.00;;;;;33.58;100.00;98990.06;6236644;28;96923;-69
2023/09/17 12:51:29;;;;;;;;;6.40;6.00;;;;;33.87;100.00;98989.44;6238608;28;96415;-68
2023/09/17 12:54:32;;;;;;;;;5.00;4.00;;;;;34.31;100.00;98982.19;6219278;28;96872;-69
2023/09/17 12:57:35;;;;;;;;;5.00;4.80;;;;;34.83;92.71;98983.34;6204024;28;98972;-68
2023/09/17 13:00:38;;;;;;;;;4.00;4.00;;;;;35.10;96.14;98972.84;6220669;28;96735;-69
2023/09/17 13:03:54;;;;;;;;;5.00;5.00;;;;;35.54;90.97;98967.34;6220895;28;96959;-69
2023/09/17 13:06:58;;;;;;;;;6.00;6.00;;;;;35.92;91.81;98969.72;6223805;28;96284;-69
2023/09/17 13:10:01;;;;;;;;;4.00;4.00;;;;;36.12;88.30;98983.53;6226281;28;96904;-69
2023/09/17 13:13:05;;;;;;;;;5.80;5.00;;;;;36.20;87.39;98974.78;6243656;28;96563;-69
2023/09/17 13:16:08;;;;;;;;;6.00;5.00;;;;;36.11;83.89;98973.50;6244303;28;96603;-69
2023/09/17 13:19:14;;;;;;;;;4.75;4.00;;;;;36.00;85.13;98971.41;6226034;28;96861;-69
2023/09/17 13:22:18;;;;;;;;;6.60;6.00;;;;;35.92;87.35;98972.53;6200715;28;96902;-69
2023/09/17 13:25:21;;;;;;;;;6.80;6.40;;;;;35.70;88.86;98978.34;6198479;28;96763;-69
2023/09/17 13:28:25;;;;;;;;;5.00;4.40;;;;;35.78;88.43;98975.22;6217280;28;96344;-68
2023/09/17 13:31:28;;;;;;;;;5.00;5.00;;;;;35.57;82.21;98967.41;6181556;28;98417;-68
2023/09/17 13:34:32;;;;;;;;;4.75;4.75;;;;;34.95;84.16;98969.06;6237592;28;98543;-69
2023/09/17 13:37:37;;;;;;;;;4.00;4.00;;;;;34.68;86.40;98964.72;6238588;28;96274;-69
2023/09/17 13:40:45;;;;;;;;;5.40;5.40;;;;;34.44;89.84;98968.78;6219598;28;96698;-69
2023/09/17 13:43:49;;;;;;;;;6.25;6.00;;;;;33.87;90.06;98964.25;6197323;28;96283;-69
2023/09/17 13:46:54;;;;;;;;;7.00;7.00;;;;;33.32;92.79;98974.03;6187632;28;96853;-69
2023/09/17 13:50:00;;;;;;;;;6.20;5.80;;;;;32.91;92.73;98970.00;6188033;28;97913;-69
2023/09/17 13:53:04;;;;;;;;;8.00;7.25;;;;;32.69;96.29;98963.19;6206191;28;96352;-69
2023/09/17 13:56:07;;;;;;;;;6.60;6.60;;;;;32.57;100.00;98955.72;6198199;28;97074;-69
2023/09/17 13:59:10;;;;;;;;;7.60;7.00;;;;;32.43;100.00;98957.38;6215872;28;96306;-69
2023/09/17 14:02:16;;;;;;;;;6.50;5.75;;;;;32.22;100.00;98955.72;6219760;28;98635;-69
2023/09/17 14:05:21;;;;;;;;;6.00;6.00;;;;;31.93;100.00;98955.38;6241208;28;96900;-69
2023/09/17 14:08:24;;;;;;;;;5.60;5.60;;;;;31.71;100.00;98957.66;6222163;28;96693;-68
2023/09/17 14:11:27;;;;;;;;;6.00;6.00;;;;;31.50;100.00;98956.25;6221219;28;98995;-69
2023/09/17 14:14:31;;;;;;;;;6.80;6.80;;;;;31.15;100.00;98948.56;6222694;28;96394;-69